createdAt,value
2023-05-05T00:00:17.382Z,12.81
2023-05-05T00:02:45.717Z,12.65
2023-05-05T00:05:14.166Z,12.95
2023-05-05T00:07:43.672Z,13.05
2023-05-05T00:10:12.246Z,13.00
2023-05-05T00:12:40.513Z,12.87
2023-05-05T00:15:09.949Z,12.84
2023-05-05T00:17:38.266Z,13.06
2023-05-05T00:20:09.948Z,12.87
2023-05-05T00:22:38.145Z,12.79
2023-05-05T00:25:10.832Z,12.62
2023-05-05T00:27:40.820Z,12.65
2023-05-05T00:30:10.736Z,12.63
2023-05-05T00:32:40.029Z,12.42
2023-05-05T00:35:08.961Z,12.58
2023-05-05T00:37:37.552Z,12.59
2023-05-05T00:40:09.092Z,12.68
2023-05-05T00:42:45.460Z,12.71
2023-05-05T00:45:15.873Z,12.72
2023-05-05T00:47:47.343Z,12.77
2023-05-05T00:50:24.018Z,12.89
2023-05-05T00:52:55.352Z,12.90
2023-05-05T00:55:26.286Z,12.42
2023-05-05T00:57:54.741Z,12.24
2023-05-05T01:00:23.441Z,11.82
2023-05-05T01:02:52.335Z,11.77
2023-05-05T01:05:23.054Z,11.75
2023-05-05T01:08:15.326Z,11.68
2023-05-05T01:10:57.303Z,11.56
2023-05-05T01:13:36.983Z,11.53
2023-05-05T01:16:15.773Z,11.23
2023-05-05T01:18:53.618Z,11.07
2023-05-05T01:21:31.506Z,11.27
2023-05-05T01:24:46.698Z,11.24
2023-05-05T01:27:44.831Z,11.18
2023-05-05T01:30:47.837Z,11.03
2023-05-05T01:33:27.084Z,10.82
2023-05-05T01:36:02.800Z,10.64
2023-05-05T01:38:41.786Z,10.68
2023-05-05T01:41:15.436Z,10.55
2023-05-05T01:43:48.121Z,10.33
2023-05-05T01:46:17.719Z,10.47
2023-05-05T01:48:50.140Z,10.26
2023-05-05T01:51:20.244Z,10.28
2023-05-05T01:53:48.903Z,10.21
2023-05-05T01:56:19.438Z,10.18
2023-05-05T01:58:49.467Z,10.14
2023-05-05T02:01:21.909Z,10.23
2023-05-05T02:03:53.372Z,10.16
2023-05-05T02:06:23.121Z,10.02
2023-05-05T02:08:55.576Z,9.67
2023-05-05T02:11:27.425Z,9.84
2023-05-05T02:13:56.601Z,9.67
2023-05-05T02:16:25.840Z,9.69
2023-05-05T02:18:56.685Z,9.72
2023-05-05T02:21:28.709Z,9.55
2023-05-05T02:23:56.939Z,9.61
2023-05-05T02:26:26.165Z,9.68
2023-05-05T02:29:09.130Z,9.33
2023-05-05T02:31:45.150Z,9.59
2023-05-05T02:34:19.892Z,9.56
2023-05-05T02:36:54.269Z,9.59
2023-05-05T02:39:36.309Z,9.54
2023-05-05T02:42:19.635Z,9.49
2023-05-05T02:44:54.121Z,9.38
2023-05-05T02:47:22.717Z,9.49
2023-05-05T02:50:00.960Z,9.48
2023-05-05T02:52:29.482Z,9.36
2023-05-05T02:54:57.856Z,9.40
2023-05-05T02:57:36.889Z,9.36
2023-05-05T03:00:15.988Z,9.29
2023-05-05T03:02:53.290Z,9.13
2023-05-05T03:05:34.102Z,9.40
2023-05-05T03:08:11.916Z,9.32
2023-05-05T03:10:48.348Z,9.29
2023-05-05T03:13:19.656Z,9.18
2023-05-05T03:15:55.864Z,9.19
2023-05-05T03:18:34.324Z,9.36
2023-05-05T03:21:09.109Z,9.16
2023-05-05T03:23:55.610Z,9.27
2023-05-05T03:26:26.319Z,9.25
2023-05-05T03:28:54.442Z,9.25
2023-05-05T03:31:28.510Z,9.16
2023-05-05T03:34:01.191Z,9.08
2023-05-05T03:36:37.154Z,9.22
2023-05-05T03:39:07.218Z,9.22
2023-05-05T03:41:37.933Z,9.22
2023-05-05T03:44:12.200Z,9.18
2023-05-05T03:46:44.078Z,9.18
2023-05-05T03:49:25.815Z,8.89
2023-05-05T03:51:55.739Z,8.92
2023-05-05T03:54:23.958Z,9.00
2023-05-05T03:56:56.326Z,9.03
2023-05-05T03:59:45.130Z,9.00
2023-05-05T04:02:18.624Z,9.16
2023-05-05T04:04:49.497Z,9.08
2023-05-05T04:07:26.560Z,9.09
2023-05-05T04:09:54.779Z,9.10
2023-05-05T04:12:26.208Z,8.89
2023-05-05T04:14:55.543Z,8.92
2023-05-05T04:17:23.916Z,9.08
2023-05-05T04:19:52.110Z,9.19
2023-05-05T04:22:23.500Z,9.18
2023-05-05T04:24:55.182Z,9.08
2023-05-05T04:27:30.453Z,9.20
2023-05-05T04:30:03.641Z,8.97
2023-05-05T04:32:36.081Z,9.29
2023-05-05T04:35:07.775Z,9.36
2023-05-05T04:37:41.586Z,9.22
2023-05-05T04:40:11.976Z,9.33
2023-05-05T04:42:41.269Z,9.21
2023-05-05T04:45:10.883Z,9.31
2023-05-05T04:47:47.663Z,9.45
2023-05-05T04:50:15.892Z,9.51
2023-05-05T04:52:51.339Z,9.52
2023-05-05T04:55:27.411Z,9.50
2023-05-05T04:57:57.485Z,9.39
2023-05-05T05:00:25.846Z,9.22
2023-05-05T05:02:56.938Z,9.47
2023-05-05T05:05:28.279Z,9.56
2023-05-05T05:08:00.795Z,9.67
2023-05-05T05:10:33.693Z,9.75
2023-05-05T05:13:04.096Z,9.72
2023-05-05T05:15:32.417Z,9.68
2023-05-05T05:18:00.693Z,9.72
2023-05-05T05:20:31.844Z,9.71
2023-05-05T05:23:02.092Z,9.94
2023-05-05T05:25:31.819Z,9.99
2023-05-05T05:28:09.571Z,9.99
2023-05-05T05:30:44.595Z,10.19
2023-05-05T05:33:13.394Z,10.26
2023-05-05T05:35:45.774Z,10.28
2023-05-05T05:38:17.544Z,9.95
2023-05-05T05:40:45.792Z,10.14
2023-05-05T05:43:17.105Z,10.12
2023-05-05T05:45:45.980Z,10.15
2023-05-05T05:48:14.325Z,10.29
2023-05-05T05:50:42.513Z,10.21
2023-05-05T05:53:14.944Z,10.21
2023-05-05T05:55:50.317Z,10.16
2023-05-05T05:58:18.708Z,10.19
2023-05-05T06:00:47.597Z,10.60
2023-05-05T06:03:20.172Z,10.65
2023-05-05T06:05:51.617Z,10.75
2023-05-05T06:08:22.047Z,10.74
2023-05-05T06:10:55.358Z,10.76
2023-05-05T06:13:23.597Z,10.67
2023-05-05T06:16:04.254Z,10.53
2023-05-05T06:18:40.571Z,10.37
2023-05-05T06:21:09.202Z,10.71
2023-05-05T06:23:37.383Z,10.96
2023-05-05T06:26:09.344Z,11.07
2023-05-05T06:28:37.516Z,11.09
2023-05-05T06:31:09.003Z,11.13
2023-05-05T06:33:37.169Z,11.26
2023-05-05T06:36:09.929Z,11.36
2023-05-05T06:38:40.345Z,11.46
2023-05-05T06:41:12.850Z,11.59
2023-05-05T06:43:50.235Z,11.72
2023-05-05T06:46:18.693Z,11.91
2023-05-05T06:48:54.899Z,12.20
2023-05-05T06:51:26.761Z,12.18
2023-05-05T06:54:06.048Z,12.42
2023-05-05T06:56:41.004Z,12.65
2023-05-05T06:59:14.549Z,12.71
2023-05-05T07:01:45.893Z,12.87
2023-05-05T07:04:14.431Z,12.60
2023-05-05T07:06:46.846Z,12.79
2023-05-05T07:09:17.022Z,12.70
2023-05-05T07:11:48.628Z,12.78
2023-05-05T07:14:21.450Z,12.81
2023-05-05T07:16:51.499Z,13.53
2023-05-05T07:19:22.364Z,13.89
2023-05-05T07:21:53.088Z,14.25
2023-05-05T07:24:28.533Z,14.27
2023-05-05T07:26:59.168Z,14.42
2023-05-05T07:29:35.836Z,14.19
2023-05-05T07:32:04.377Z,13.75
2023-05-05T07:34:36.990Z,13.59
2023-05-05T07:37:05.820Z,13.65
2023-05-05T07:39:39.120Z,13.86
2023-05-05T07:42:13.529Z,14.21
2023-05-05T07:44:41.788Z,13.97
2023-05-05T07:47:10.008Z,14.71
2023-05-05T07:49:40.924Z,14.95
2023-05-05T07:52:09.190Z,15.21
2023-05-05T07:54:42.592Z,15.44
2023-05-05T07:57:12.231Z,15.62
2023-05-05T07:59:43.982Z,15.67
2023-05-05T08:02:13.094Z,15.52
2023-05-05T08:04:41.835Z,15.14
2023-05-05T08:07:10.260Z,15.48
2023-05-05T08:09:40.620Z,16.04
2023-05-05T08:12:09.011Z,16.15
2023-05-05T08:14:42.447Z,16.29
2023-05-05T08:17:12.382Z,16.54
2023-05-05T08:19:40.869Z,17.01
2023-05-05T08:22:11.693Z,16.98
2023-05-05T08:24:39.898Z,17.15
2023-05-05T08:27:08.181Z,16.74
2023-05-05T08:29:39.464Z,16.95
2023-05-05T08:32:07.704Z,17.20
2023-05-05T08:34:35.880Z,17.47
2023-05-05T08:37:04.054Z,17.68
2023-05-05T08:39:34.341Z,17.70
2023-05-05T08:42:02.577Z,18.10
2023-05-05T08:44:30.843Z,18.23
2023-05-05T08:47:02.998Z,17.97
2023-05-05T08:49:38.125Z,18.19
2023-05-05T08:52:11.443Z,18.18
2023-05-05T08:54:46.187Z,17.87
2023-05-05T08:57:17.909Z,17.88
2023-05-05T08:59:46.534Z,17.89
2023-05-05T09:02:17.217Z,18.13
2023-05-05T09:04:45.715Z,17.74
2023-05-05T09:07:14.140Z,17.86
2023-05-05T09:09:46.901Z,17.65
2023-05-05T09:12:18.632Z,17.81
2023-05-05T09:14:47.992Z,17.40
2023-05-05T09:17:27.749Z,16.85
2023-05-05T09:20:15.353Z,16.45
2023-05-05T09:22:46.190Z,15.86
2023-05-05T09:25:16.902Z,15.37
2023-05-05T09:27:49.037Z,15.15
2023-05-05T09:30:24.152Z,14.81
2023-05-05T09:32:55.920Z,14.61
2023-05-05T09:35:24.992Z,14.62
2023-05-05T09:37:53.187Z,14.58
2023-05-05T09:40:22.517Z,14.25
2023-05-05T09:43:02.100Z,13.14
2023-05-05T09:45:30.292Z,12.60
2023-05-05T09:48:00.898Z,12.39
2023-05-05T09:50:32.568Z,11.70
2023-05-05T09:53:03.061Z,11.69
2023-05-05T09:55:31.976Z,11.65
2023-05-05T09:58:19.906Z,11.37
2023-05-05T10:00:48.484Z,11.14
2023-05-05T10:03:18.601Z,10.96
2023-05-05T10:05:52.185Z,10.63
2023-05-05T10:08:22.248Z,10.94
2023-05-05T10:10:55.465Z,10.78
2023-05-05T10:13:25.460Z,10.92
2023-05-05T10:15:57.100Z,10.91
2023-05-05T10:18:39.004Z,11.02
2023-05-05T10:21:08.329Z,11.32
2023-05-05T10:23:48.918Z,11.36
2023-05-05T10:26:21.036Z,11.60
2023-05-05T10:28:52.701Z,11.60
2023-05-05T10:31:30.257Z,11.74
2023-05-05T10:34:07.795Z,11.81
2023-05-05T10:36:39.055Z,11.90
2023-05-05T10:39:09.449Z,11.86
2023-05-05T10:41:38.859Z,11.64
2023-05-05T10:44:07.960Z,11.79
2023-05-05T10:46:36.544Z,11.68
2023-05-05T10:49:18.256Z,11.64
2023-05-05T10:51:54.557Z,11.71
2023-05-05T10:54:40.750Z,11.74
2023-05-05T10:57:12.227Z,11.80
2023-05-05T10:59:47.556Z,11.72
2023-05-05T11:02:24.634Z,11.57
2023-05-05T11:05:18.411Z,11.34
2023-05-05T11:07:47.662Z,11.48
2023-05-05T11:10:18.853Z,11.76
2023-05-05T11:13:21.950Z,11.98
2023-05-05T11:15:55.137Z,11.90
2023-05-05T11:18:34.001Z,12.13
2023-05-05T11:21:17.144Z,12.39
2023-05-05T11:23:51.666Z,12.29
2023-05-05T11:26:51.714Z,12.60
2023-05-05T11:29:21.763Z,12.70
2023-05-05T11:32:22.979Z,12.29
2023-05-05T11:34:51.837Z,12.92
2023-05-05T11:37:28.435Z,12.98
2023-05-05T11:40:08.901Z,13.05
2023-05-05T11:42:39.081Z,13.13
2023-05-05T11:45:22.697Z,13.08
2023-05-05T11:47:51.352Z,13.23
2023-05-05T11:50:23.044Z,13.28
2023-05-05T11:52:52.829Z,13.34
2023-05-05T11:55:25.559Z,13.40
2023-05-05T11:57:53.865Z,13.37
2023-05-05T12:00:33.532Z,13.32
2023-05-05T12:03:01.993Z,13.21
2023-05-05T12:05:30.854Z,13.13
2023-05-05T12:08:00.649Z,13.02
2023-05-05T12:10:29.265Z,13.00
2023-05-05T12:12:58.092Z,12.73
2023-05-05T12:15:31.711Z,12.39
2023-05-05T12:18:03.339Z,12.41
2023-05-05T12:20:38.225Z,11.93
2023-05-05T12:23:08.549Z,12.09
2023-05-05T12:25:39.642Z,11.97
2023-05-05T12:28:09.683Z,11.83
2023-05-05T12:30:38.203Z,11.94
2023-05-05T12:33:08.437Z,11.82
2023-05-05T12:35:37.851Z,11.83
2023-05-05T12:38:07.540Z,11.63
2023-05-05T12:40:55.364Z,11.65
2023-05-05T12:43:32.672Z,11.59
2023-05-05T12:46:12.998Z,11.68
2023-05-05T12:48:45.632Z,11.45
2023-05-05T12:51:20.985Z,11.33
2023-05-05T12:54:05.756Z,11.25
2023-05-05T12:56:36.648Z,11.11
2023-05-05T12:59:06.805Z,11.31
2023-05-05T13:01:36.485Z,11.10
2023-05-05T13:04:15.537Z,11.37
2023-05-05T13:06:45.480Z,11.42
2023-05-05T13:09:26.007Z,11.72
2023-05-05T13:11:54.926Z,11.67
2023-05-05T13:14:25.603Z,11.68
2023-05-05T13:16:54.628Z,11.81
2023-05-05T13:19:24.850Z,12.08
2023-05-05T13:21:53.535Z,12.20
2023-05-05T13:24:38.075Z,12.36
2023-05-05T13:27:14.612Z,12.61
2023-05-05T13:29:43.804Z,12.86
2023-05-05T13:32:11.982Z,13.01
2023-05-05T13:37:11.547Z,13.76
2023-05-05T13:39:45.172Z,14.15
2023-05-05T13:42:13.400Z,14.53
2023-05-05T13:44:41.555Z,14.79
2023-05-05T13:47:09.904Z,15.24
2023-05-05T13:49:44.781Z,15.55
2023-05-05T13:52:13.057Z,15.94
2023-05-05T13:54:42.621Z,16.13
2023-05-05T13:57:12.272Z,16.42
2023-05-05T13:59:40.545Z,16.53
2023-05-05T14:02:08.745Z,16.77
2023-05-05T14:04:37.469Z,16.69
2023-05-05T14:07:05.720Z,16.59
2023-05-05T14:09:33.883Z,16.48
2023-05-05T14:12:03.520Z,16.44
2023-05-05T14:14:37.699Z,16.55
2023-05-05T14:17:06.386Z,16.45
2023-05-05T14:19:34.710Z,16.52
2023-05-05T14:22:02.844Z,16.51
2023-05-05T14:24:33.293Z,16.33
2023-05-05T14:27:04.569Z,16.33
2023-05-05T14:29:32.833Z,16.45
2023-05-05T14:32:01.082Z,16.29
2023-05-05T14:34:29.392Z,16.40
2023-05-05T14:36:59.696Z,16.28
2023-05-05T14:39:33.165Z,16.22
2023-05-05T14:42:02.051Z,16.33
2023-05-05T14:44:31.555Z,16.35
2023-05-05T14:46:59.938Z,16.24
2023-05-05T14:49:28.196Z,16.02
2023-05-05T14:51:57.223Z,16.25
2023-05-05T14:54:28.755Z,16.17
2023-05-05T14:56:58.333Z,16.39
2023-05-05T14:59:27.471Z,16.27
2023-05-05T15:01:57.212Z,16.41
2023-05-05T15:04:25.602Z,16.51
2023-05-05T15:06:54.006Z,16.12
2023-05-05T15:09:22.322Z,16.16
2023-05-05T15:11:50.687Z,16.19
2023-05-05T15:14:18.905Z,16.22
2023-05-05T15:16:49.323Z,16.19
2023-05-05T15:19:25.798Z,16.07
2023-05-05T15:21:54.159Z,16.10
2023-05-05T15:24:22.836Z,16.38
2023-05-05T15:26:51.186Z,16.45
2023-05-05T15:29:19.456Z,16.66
2023-05-05T15:31:52.777Z,16.79
2023-05-05T15:34:21.406Z,16.65
2023-05-05T15:36:50.970Z,16.56
2023-05-05T15:39:19.201Z,16.69
2023-05-05T15:41:47.331Z,16.91
2023-05-05T15:44:15.966Z,17.01
2023-05-05T15:46:49.717Z,16.93
2023-05-05T15:49:28.687Z,16.96
2023-05-05T15:52:00.828Z,16.69
2023-05-05T15:54:29.006Z,16.83
2023-05-05T15:56:57.280Z,16.85
2023-05-05T15:59:28.151Z,16.81
2023-05-05T16:01:56.424Z,16.76
2023-05-05T16:04:24.575Z,16.72
2023-05-05T16:06:52.768Z,16.40
2023-05-05T16:09:22.616Z,16.30
2023-05-05T16:11:50.794Z,15.73
2023-05-05T16:14:19.024Z,15.74
2023-05-05T16:16:51.282Z,15.58
2023-05-05T16:19:19.637Z,15.44
2023-05-05T16:21:48.283Z,15.30
2023-05-05T16:24:16.691Z,15.29
2023-05-05T16:26:48.921Z,15.26
2023-05-05T16:29:17.637Z,15.21
2023-05-05T16:31:45.931Z,15.22
2023-05-05T16:34:16.941Z,15.28
2023-05-05T16:36:45.358Z,15.28
2023-05-05T16:39:13.624Z,15.36
2023-05-05T16:41:42.127Z,15.36
2023-05-05T16:44:11.826Z,15.64
2023-05-05T16:46:41.263Z,15.84
2023-05-05T16:49:18.444Z,16.01
2023-05-05T16:51:46.692Z,16.15
2023-05-05T16:54:14.960Z,15.96
2023-05-05T16:56:45.050Z,16.08
2023-05-05T16:59:19.116Z,16.22
2023-05-05T17:01:51.876Z,16.16
2023-05-05T17:04:21.930Z,16.10
2023-05-05T17:06:54.959Z,15.98
2023-05-05T17:09:24.879Z,15.58
2023-05-05T17:11:53.238Z,15.62
2023-05-05T17:14:27.551Z,15.53
2023-05-05T17:16:58.400Z,15.43
2023-05-05T17:19:28.073Z,15.49
2023-05-05T17:21:57.782Z,15.52
2023-05-05T17:24:26.043Z,15.34
2023-05-05T17:26:54.944Z,15.56
2023-05-05T17:29:24.759Z,15.50
2023-05-05T17:31:55.689Z,15.61
2023-05-05T17:34:23.986Z,15.69
2023-05-05T17:36:52.127Z,15.84
2023-05-05T17:39:20.314Z,15.95
2023-05-05T17:41:48.798Z,16.06
2023-05-05T17:44:18.767Z,16.09
2023-05-05T17:46:50.095Z,16.09
2023-05-05T17:49:18.321Z,16.16
2023-05-05T17:51:46.537Z,16.00
2023-05-05T17:54:14.836Z,16.18
2023-05-05T17:56:43.068Z,16.19
2023-05-05T17:59:11.218Z,16.07
2023-05-05T18:01:41.208Z,16.18
2023-05-05T18:04:10.885Z,16.12
2023-05-05T18:06:39.159Z,16.06
2023-05-05T18:09:13.260Z,15.95
2023-05-05T18:11:43.799Z,15.89
2023-05-05T18:14:20.247Z,15.82
2023-05-05T18:16:52.498Z,15.72
2023-05-05T18:19:24.392Z,15.53
2023-05-05T18:21:54.336Z,15.31
2023-05-05T18:24:22.793Z,14.80
2023-05-05T18:26:52.731Z,14.97
2023-05-05T18:29:22.775Z,14.72
2023-05-05T18:31:54.911Z,14.66
2023-05-05T18:34:26.525Z,13.94
2023-05-05T18:36:56.488Z,14.33
2023-05-05T18:39:24.751Z,14.16
2023-05-05T18:41:54.715Z,13.97
2023-05-05T18:44:25.469Z,13.84
2023-05-05T18:46:56.290Z,13.72
2023-05-05T18:49:26.767Z,13.54
2023-05-05T18:52:04.484Z,13.32
2023-05-05T18:54:32.824Z,13.11
2023-05-05T18:57:04.732Z,12.97
2023-05-05T18:59:32.965Z,12.80
2023-05-05T19:02:02.306Z,12.71
2023-05-05T19:04:37.407Z,12.52
2023-05-05T19:07:06.028Z,12.35
2023-05-05T19:09:39.149Z,11.98
2023-05-05T19:12:09.926Z,11.99
2023-05-05T19:14:38.126Z,11.69
2023-05-05T19:17:07.302Z,11.84
2023-05-05T19:19:36.945Z,11.64
2023-05-05T19:22:05.362Z,11.67
2023-05-05T19:24:35.507Z,11.56
2023-05-05T19:27:04.002Z,11.44
2023-05-05T19:29:32.396Z,11.30
2023-05-05T19:32:00.630Z,11.24
2023-05-05T19:34:28.764Z,11.20
2023-05-05T19:36:58.598Z,11.21
2023-05-05T19:39:26.774Z,11.15
2023-05-05T19:41:55.267Z,10.92
2023-05-05T19:44:23.826Z,10.96
2023-05-05T19:46:53.467Z,10.98
2023-05-05T19:49:21.712Z,11.08
2023-05-05T19:51:52.133Z,11.04
2023-05-05T19:54:26.607Z,10.75
2023-05-05T19:56:56.030Z,10.93
2023-05-05T19:59:26.019Z,10.86
2023-05-05T20:01:56.638Z,10.85
2023-05-05T20:04:26.869Z,10.91
2023-05-05T20:06:58.337Z,10.84
2023-05-05T20:09:28.564Z,10.87
2023-05-05T20:11:57.249Z,10.63
2023-05-05T20:14:25.705Z,10.83
2023-05-05T20:16:53.880Z,10.95
2023-05-05T20:19:24.066Z,10.99
2023-05-05T20:21:52.422Z,10.84
2023-05-05T20:24:22.844Z,11.02
2023-05-05T20:26:52.509Z,11.21
2023-05-05T20:29:20.789Z,10.90
2023-05-05T20:31:54.853Z,11.31
2023-05-05T20:34:24.932Z,11.23
2023-05-05T20:36:53.158Z,11.34
2023-05-05T20:39:25.415Z,11.27
2023-05-05T20:41:58.082Z,11.19
2023-05-05T20:44:29.096Z,11.06
2023-05-05T20:46:57.342Z,10.79
2023-05-05T20:49:28.819Z,10.84
2023-05-05T20:52:01.532Z,10.74
2023-05-05T20:54:40.342Z,10.47
2023-05-05T20:57:11.622Z,10.60
2023-05-05T20:59:39.785Z,9.72
2023-05-05T21:02:10.539Z,10.32
2023-05-05T21:04:39.152Z,10.59
2023-05-05T21:07:07.556Z,10.63
2023-05-05T21:09:36.550Z,10.65
2023-05-05T21:12:10.676Z,10.65
2023-05-05T21:14:44.438Z,10.71
2023-05-05T21:17:12.772Z,10.62
2023-05-05T21:19:41.190Z,10.82
2023-05-05T21:22:09.643Z,10.82
2023-05-05T21:24:39.696Z,10.68
2023-05-05T21:27:08.096Z,10.59
2023-05-05T21:29:37.810Z,10.42
2023-05-05T21:32:09.268Z,10.63
2023-05-05T21:34:38.200Z,10.34
2023-05-05T21:37:07.109Z,10.46
2023-05-05T21:39:35.465Z,10.44
2023-05-05T21:42:03.725Z,10.32
2023-05-05T21:44:32.146Z,10.38
2023-05-05T21:47:00.309Z,10.33
2023-05-05T21:49:30.525Z,10.38
2023-05-05T21:51:58.735Z,10.14
2023-05-05T21:54:27.198Z,10.40
2023-05-05T21:56:55.405Z,10.40
2023-05-05T21:59:23.635Z,10.32
2023-05-05T22:01:51.953Z,10.23
2023-05-05T22:04:20.246Z,10.36
2023-05-05T22:06:49.905Z,10.35
2023-05-05T22:09:18.336Z,10.32
2023-05-05T22:11:48.199Z,10.29
2023-05-05T22:14:16.452Z,10.11
2023-05-05T22:16:44.634Z,10.22
2023-05-05T22:19:12.865Z,10.19
2023-05-05T22:21:40.987Z,9.87
2023-05-05T22:24:10.563Z,10.13
2023-05-05T22:26:43.166Z,10.11
2023-05-05T22:29:11.749Z,10.11
2023-05-05T22:31:40.235Z,10.07
2023-05-05T22:34:08.409Z,10.06
2023-05-05T22:36:36.643Z,10.02
2023-05-05T22:39:05.257Z,9.84
2023-05-05T22:41:34.790Z,10.01
2023-05-05T22:44:02.963Z,10.00
2023-05-05T22:46:31.129Z,9.89
2023-05-05T22:48:59.438Z,9.70
2023-05-05T22:51:27.863Z,9.70
2023-05-05T22:53:56.229Z,9.66
2023-05-05T22:56:24.395Z,9.60
2023-05-05T22:58:53.903Z,9.48
2023-05-05T23:01:22.178Z,9.21
2023-05-05T23:03:50.722Z,9.41
2023-05-05T23:06:19.011Z,9.44
2023-05-05T23:08:48.910Z,9.20
2023-05-05T23:11:21.920Z,9.19
2023-05-05T23:13:50.180Z,9.25
2023-05-05T23:16:19.879Z,8.22
2023-05-05T23:18:48.091Z,9.04
2023-05-05T23:21:16.366Z,8.74
2023-05-05T23:23:44.694Z,8.45
2023-05-05T23:26:16.263Z,8.74
2023-05-05T23:28:44.478Z,8.72
2023-05-05T23:31:15.782Z,8.91
2023-05-05T23:33:45.381Z,8.86
2023-05-05T23:36:13.580Z,8.67
2023-05-05T23:38:41.832Z,8.72
2023-05-05T23:41:10.119Z,8.71
2023-05-05T23:43:38.309Z,8.75
2023-05-05T23:46:06.640Z,8.40
2023-05-05T23:48:36.901Z,8.67
2023-05-05T23:51:06.366Z,8.70
2023-05-05T23:53:34.659Z,8.45
2023-05-05T23:56:02.866Z,8.57
2023-05-05T23:58:31.118Z,8.26
